sensor_id;sensor_type;location;lat;lon;timestamp;P1;durP1;ratioP1;P2;durP2;ratioP2
1957;SDS011;979;51.076;13.748;2024-01-16T01:46:19;23.10;;;22.30;;
1957;SDS011;979;51.076;13.748;2024-01-16T01:48:49;23.10;;;22.30;;
1957;SDS011;979;51.076;13.748;2024-01-16T01:51:18;22.80;;;22.00;;
1957;SDS011;979;51.076;13.748;2024-01-16T01:53:48;24.20;;;23.30;;
1957;SDS011;979;51.076;13.748;2024-01-16T01:56:21;22.70;;;22.00;;
1957;SDS011;979;51.076;13.748;2024-01-16T01:58:49;21.83;;;21.13;;
1957;SDS011;979;51.076;13.748;2024-01-16T02:01:23;23.20;;;22.20;;
1957;SDS011;979;51.076;13.748;2024-01-16T02:03:55;21.70;;;21.00;;
1957;SDS011;979;51.076;13.748;2024-01-16T02:06:25;22.37;;;21.57;;
1957;SDS011;979;51.076;13.748;2024-01-16T02:08:56;22.00;;;21.30;;
1957;SDS011;979;51.076;13.748;2024-01-16T02:11:25;22.20;;;21.40;;
1957;SDS011;979;51.076;13.748;2024-01-16T02:13:55;21.80;;;21.10;;
1957;SDS011;979;51.076;13.748;2024-01-16T02:16:25;21.90;;;21.17;;
1957;SDS011;979;51.076;13.748;2024-01-16T02:18:55;24.77;;;23.00;;
1957;SDS011;979;51.076;13.748;2024-01-16T02:21:25;21.73;;;21.03;;
1957;SDS011;979;51.076;13.748;2024-01-16T02:23:59;21.20;;;20.50;;
1957;SDS011;979;51.076;13.748;2024-01-16T02:26:29;21.20;;;20.50;;
1957;SDS011;979;51.076;13.748;2024-01-16T02:29:00;20.60;;;19.90;;
1957;SDS011;979;51.076;13.748;2024-01-16T02:31:32;21.33;;;20.63;;
1957;SDS011;979;51.076;13.748;2024-01-16T02:34:01;20.53;;;19.93;;
1957;SDS011;979;51.076;13.748;2024-01-16T02:36:30;20.83;;;20.20;;
1957;SDS011;979;51.076;13.748;2024-01-16T02:39:01;20.40;;;19.70;;
1957;SDS011;979;51.076;13.748;2024-01-16T02:41:29;20.30;;;19.60;;
1957;SDS011;979;51.076;13.748;2024-01-16T02:43:57;19.73;;;19.13;;
1957;SDS011;979;51.076;13.748;2024-01-16T02:46:26;19.90;;;19.30;;
1957;SDS011;979;51.076;13.748;2024-01-16T02:48:54;19.77;;;19.17;;
1957;SDS011;979;51.076;13.748;2024-01-16T02:51:23;19.80;;;19.20;;
1957;SDS011;979;51.076;13.748;2024-01-16T02:53:51;20.40;;;19.80;;
1957;SDS011;979;51.076;13.748;2024-01-16T02:56:23;19.90;;;19.30;;
1957;SDS011;979;51.076;13.748;2024-01-16T02:58:52;19.87;;;19.27;;
1957;SDS011;979;51.076;13.748;2024-01-16T03:01:22;19.80;;;19.20;;
1957;SDS011;979;51.076;13.748;2024-01-16T03:03:53;19.93;;;19.30;;
1957;SDS011;979;51.076;13.748;2024-01-16T03:06:23;19.80;;;19.20;;
1957;SDS011;979;51.076;13.748;2024-01-16T03:08:52;20.10;;;19.50;;
1957;SDS011;979;51.076;13.748;2024-01-16T03:11:24;19.30;;;18.73;;
1957;SDS011;979;51.076;13.748;2024-01-16T03:13:52;19.70;;;19.10;;
1957;SDS011;979;51.076;13.748;2024-01-16T03:16:20;19.40;;;18.80;;
1957;SDS011;979;51.076;13.748;2024-01-16T03:18:49;19.07;;;18.47;;
1957;SDS011;979;51.076;13.748;2024-01-16T03:21:17;19.47;;;18.87;;
1957;SDS011;979;51.076;13.748;2024-01-16T03:23:46;19.20;;;18.60;;
1957;SDS011;979;51.076;13.748;2024-01-16T03:26:16;18.40;;;17.80;;
1957;SDS011;979;51.076;13.748;2024-01-16T03:28:46;17.87;;;17.37;;
1957;SDS011;979;51.076;13.748;2024-01-16T03:31:15;18.73;;;18.13;;
1957;SDS011;979;51.076;13.748;2024-01-16T03:33:44;18.60;;;18.00;;
1957;SDS011;979;51.076;13.748;2024-01-16T03:36:12;18.10;;;17.60;;
1957;SDS011;979;51.076;13.748;2024-01-16T03:38:41;18.77;;;18.17;;
1957;SDS011;979;51.076;13.748;2024-01-16T03:41:10;18.90;;;18.30;;
1957;SDS011;979;51.076;13.748;2024-01-16T03:43:41;19.00;;;18.40;;
1957;SDS011;979;51.076;13.748;2024-01-16T03:46:11;19.57;;;18.90;;
1957;SDS011;979;51.076;13.748;2024-01-16T03:48:40;20.60;;;19.80;;
1957;SDS011;979;51.076;13.748;2024-01-16T03:51:08;19.00;;;18.40;;
1957;SDS011;979;51.076;13.748;2024-01-16T03:53:37;19.00;;;18.40;;
1957;SDS011;979;51.076;13.748;2024-01-16T03:56:05;19.17;;;18.57;;
1957;SDS011;979;51.076;13.748;2024-01-16T03:58:34;19.00;;;18.40;;
1957;SDS011;979;51.076;13.748;2024-01-16T04:01:05;19.67;;;18.97;;
1957;SDS011;979;51.076;13.748;2024-01-16T04:03:35;19.43;;;18.73;;
1957;SDS011;979;51.076;13.748;2024-01-16T04:06:14;18.80;;;18.20;;
1957;SDS011;979;51.076;13.748;2024-01-16T04:08:43;17.90;;;17.40;;
1957;SDS011;979;51.076;13.748;2024-01-16T04:11:11;18.90;;;18.30;;
1957;SDS011;979;51.076;13.748;2024-01-16T04:13:40;19.23;;;18.63;;
1957;SDS011;979;51.076;13.748;2024-01-16T04:16:09;18.70;;;18.10;;
1957;SDS011;979;51.076;13.748;2024-01-16T04:18:41;19.83;;;19.23;;
1957;SDS011;979;51.076;13.748;2024-01-16T04:21:10;18.27;;;17.70;;
1957;SDS011;979;51.076;13.748;2024-01-16T04:23:38;18.13;;;17.63;;
1957;SDS011;979;51.076;13.748;2024-01-16T04:26:08;18.40;;;17.80;;
1957;SDS011;979;51.076;13.748;2024-01-16T04:28:39;18.47;;;17.90;;
1957;SDS011;979;51.076;13.748;2024-01-16T04:31:09;18.70;;;18.10;;
1957;SDS011;979;51.076;13.748;2024-01-16T04:33:39;16.90;;;16.50;;
1957;SDS011;979;51.076;13.748;2024-01-16T04:36:12;18.80;;;18.20;;
1957;SDS011;979;51.076;13.748;2024-01-16T04:38:40;18.07;;;17.57;;
1957;SDS011;979;51.076;13.748;2024-01-16T04:41:09;18.23;;;17.70;;
1957;SDS011;979;51.076;13.748;2024-01-16T04:43:39;18.20;;;17.60;;
1957;SDS011;979;51.076;13.748;2024-01-16T04:46:07;18.90;;;18.30;;
1957;SDS011;979;51.076;13.748;2024-01-16T04:48:36;18.00;;;17.50;;
1957;SDS011;979;51.076;13.748;2024-01-16T04:51:06;17.83;;;17.33;;
1957;SDS011;979;51.076;13.748;2024-01-16T04:53:35;17.50;;;17.00;;
1957;SDS011;979;51.076;13.748;2024-01-16T04:56:06;17.63;;;17.13;;
1957;SDS011;979;51.076;13.748;2024-01-16T04:58:34;17.47;;;16.87;;
1957;SDS011;979;51.076;13.748;2024-01-16T05:01:02;16.10;;;15.70;;
1957;SDS011;979;51.076;13.748;2024-01-16T05:03:31;19.00;;;18.40;;
1957;SDS011;979;51.076;13.748;2024-01-16T05:05:59;18.07;;;17.57;;
1957;SDS011;979;51.076;13.748;2024-01-16T05:08:31;17.40;;;16.90;;
1957;SDS011;979;51.076;13.748;2024-01-16T05:10:59;16.80;;;16.40;;
1957;SDS011;979;51.076;13.748;2024-01-16T05:13:30;17.17;;;16.77;;
1957;SDS011;979;51.076;13.748;2024-01-16T05:15:58;18.27;;;17.67;;
1957;SDS011;979;51.076;13.748;2024-01-16T05:18:26;19.00;;;18.40;;
1957;SDS011;979;51.076;13.748;2024-01-16T05:20:54;18.00;;;17.50;;
1957;SDS011;979;51.076;13.748;2024-01-16T05:23:26;18.57;;;17.97;;
1957;SDS011;979;51.076;13.748;2024-01-16T05:26:01;17.60;;;17.10;;
1957;SDS011;979;51.076;13.748;2024-01-16T05:28:29;17.70;;;17.20;;
1957;SDS011;979;51.076;13.748;2024-01-16T05:30:59;17.70;;;17.20;;
1957;SDS011;979;51.076;13.748;2024-01-16T05:33:27;17.57;;;17.07;;
1957;SDS011;979;51.076;13.748;2024-01-16T05:35:56;15.77;;;15.37;;
1957;SDS011;979;51.076;13.748;2024-01-16T05:38:30;16.37;;;15.97;;
1957;SDS011;979;51.076;13.748;2024-01-16T05:41:05;18.03;;;17.30;;
1957;SDS011;979;51.076;13.748;2024-01-16T05:43:35;17.80;;;17.30;;
1957;SDS011;979;51.076;13.748;2024-01-16T05:46:03;17.13;;;16.63;;
1957;SDS011;979;51.076;13.748;2024-01-16T05:48:32;16.10;;;15.70;;
1957;SDS011;979;51.076;13.748;2024-01-16T05:51:01;17.70;;;17.20;;
1957;SDS011;979;51.076;13.748;2024-01-16T05:53:31;17.43;;;16.93;;
1957;SDS011;979;51.076;13.748;2024-01-16T05:56:00;15.70;;;15.30;;
1957;SDS011;979;51.076;13.748;2024-01-16T05:58:29;15.70;;;15.30;;
1957;SDS011;979;51.076;13.748;2024-01-16T06:01:06;16.47;;;16.03;;
1957;SDS011;979;51.076;13.748;2024-01-16T06:03:35;18.00;;;17.50;;
1957;SDS011;979;51.076;13.748;2024-01-16T06:06:07;17.53;;;16.93;;
1957;SDS011;979;51.076;13.748;2024-01-16T06:08:35;18.83;;;18.07;;
1957;SDS011;979;51.076;13.748;2024-01-16T06:11:04;16.87;;;16.40;;
1957;SDS011;979;51.076;13.748;2024-01-16T06:13:33;17.50;;;16.80;;
1957;SDS011;979;51.076;13.748;2024-01-16T06:16:02;17.67;;;17.17;;
1957;SDS011;979;51.076;13.748;2024-01-16T06:18:30;17.40;;;16.90;;
1957;SDS011;979;51.076;13.748;2024-01-16T06:20:58;17.37;;;16.87;;
1957;SDS011;979;51.076;13.748;2024-01-16T06:23:27;18.30;;;17.80;;
1957;SDS011;979;51.076;13.748;2024-01-16T06:25:59;17.83;;;17.33;;
1957;SDS011;979;51.076;13.748;2024-01-16T06:28:27;17.43;;;17.00;;
1957;SDS011;979;51.076;13.748;2024-01-16T06:30:57;18.83;;;18.23;;
1957;SDS011;979;51.076;13.748;2024-01-16T06:33:26;17.20;;;16.70;;
1957;SDS011;979;51.076;13.748;2024-01-16T06:35:54;17.17;;;16.67;;
1957;SDS011;979;51.076;13.748;2024-01-16T06:38:24;16.50;;;16.10;;
1957;SDS011;979;51.076;13.748;2024-01-16T06:40:52;17.53;;;17.03;;
1957;SDS011;979;51.076;13.748;2024-01-16T06:43:20;17.10;;;16.70;;
1957;SDS011;979;51.076;13.748;2024-01-16T06:45:49;17.63;;;17.03;;
1957;SDS011;979;51.076;13.748;2024-01-16T06:48:21;17.60;;;17.10;;
1957;SDS011;979;51.076;13.748;2024-01-16T06:50:50;18.50;;;17.90;;
1957;SDS011;979;51.076;13.748;2024-01-16T06:53:21;16.90;;;16.40;;
1957;SDS011;979;51.076;13.748;2024-01-16T06:55:49;18.20;;;17.60;;
1957;SDS011;979;51.076;13.748;2024-01-16T06:58:35;18.27;;;17.70;;
1957;SDS011;979;51.076;13.748;2024-01-16T07:01:21;19.67;;;18.97;;
1957;SDS011;979;51.076;13.748;2024-01-16T07:07:00;17.93;;;17.43;;
1957;SDS011;979;51.076;13.748;2024-01-16T07:09:32;18.30;;;17.80;;
1957;SDS011;979;51.076;13.748;2024-01-16T07:12:11;18.40;;;17.90;;
1957;SDS011;979;51.076;13.748;2024-01-16T07:26:41;18.20;;;17.70;;
1957;SDS011;979;51.076;13.748;2024-01-16T07:29:13;18.80;;;18.07;;
1957;SDS011;979;51.076;13.748;2024-01-16T07:35:46;18.00;;;17.40;;
1957;SDS011;979;51.076;13.748;2024-01-16T07:52:53;17.90;;;17.40;;
1957;SDS011;979;51.076;13.748;2024-01-16T07:55:21;18.10;;;17.60;;
1957;SDS011;979;51.076;13.748;2024-01-16T07:57:51;18.00;;;17.50;;
1957;SDS011;979;51.076;13.748;2024-01-16T08:00:19;18.57;;;17.93;;
1957;SDS011;979;51.076;13.748;2024-01-16T08:02:48;17.50;;;17.00;;
1957;SDS011;979;51.076;13.748;2024-01-16T08:05:19;17.70;;;17.20;;
1957;SDS011;979;51.076;13.748;2024-01-16T08:07:54;17.80;;;17.30;;
1957;SDS011;979;51.076;13.748;2024-01-16T08:10:25;18.10;;;17.60;;
1957;SDS011;979;51.076;13.748;2024-01-16T08:12:54;18.20;;;17.70;;
1957;SDS011;979;51.076;13.748;2024-01-16T08:15:22;17.80;;;17.30;;
1957;SDS011;979;51.076;13.748;2024-01-16T08:17:50;17.30;;;16.90;;
1957;SDS011;979;51.076;13.748;2024-01-16T08:20:18;18.50;;;18.00;;
1957;SDS011;979;51.076;13.748;2024-01-16T08:22:50;17.70;;;17.30;;
1957;SDS011;979;51.076;13.748;2024-01-16T08:25:19;18.43;;;17.90;;
1957;SDS011;979;51.076;13.748;2024-01-16T08:27:47;17.40;;;17.00;;
1957;SDS011;979;51.076;13.748;2024-01-16T08:30:16;17.67;;;17.27;;
1957;SDS011;979;51.076;13.748;2024-01-16T08:32:45;17.73;;;17.33;;
1957;SDS011;979;51.076;13.748;2024-01-16T08:35:14;18.30;;;17.80;;
1957;SDS011;979;51.076;13.748;2024-01-16T08:37:43;18.70;;;18.10;;
1957;SDS011;979;51.076;13.748;2024-01-16T08:40:14;18.80;;;17.80;;
1957;SDS011;979;51.076;13.748;2024-01-16T08:42:46;18.40;;;17.90;;
1957;SDS011;979;51.076;13.748;2024-01-16T08:45:22;18.70;;;18.20;;
1957;SDS011;979;51.076;13.748;2024-01-16T08:47:52;17.60;;;17.20;;
1957;SDS011;979;51.076;13.748;2024-01-16T08:50:30;19.10;;;18.50;;
1957;SDS011;979;51.076;13.748;2024-01-16T08:52:59;18.93;;;18.33;;
1957;SDS011;979;51.076;13.748;2024-01-16T08:55:27;19.03;;;18.43;;
1957;SDS011;979;51.076;13.748;2024-01-16T08:58:08;17.80;;;17.30;;
1957;SDS011;979;51.076;13.748;2024-01-16T09:00:38;18.23;;;17.73;;
1957;SDS011;979;51.076;13.748;2024-01-16T09:03:07;19.30;;;18.70;;
1957;SDS011;979;51.076;13.748;2024-01-16T09:05:35;18.10;;;17.60;;
1957;SDS011;979;51.076;13.748;2024-01-16T09:08:10;18.20;;;17.70;;
1957;SDS011;979;51.076;13.748;2024-01-16T09:10:39;19.07;;;18.47;;
1957;SDS011;979;51.076;13.748;2024-01-16T09:13:09;17.87;;;17.37;;
1957;SDS011;979;51.076;13.748;2024-01-16T09:15:39;18.33;;;17.83;;
1957;SDS011;979;51.076;13.748;2024-01-16T09:18:08;17.60;;;17.10;;
1957;SDS011;979;51.076;13.748;2024-01-16T09:20:37;17.70;;;17.30;;
1957;SDS011;979;51.076;13.748;2024-01-16T09:23:06;19.17;;;18.27;;
1957;SDS011;979;51.076;13.748;2024-01-16T09:25:45;17.90;;;17.50;;
1957;SDS011;979;51.076;13.748;2024-01-16T09:28:19;18.50;;;17.80;;
1957;SDS011;979;51.076;13.748;2024-01-16T09:30:48;17.90;;;17.50;;
1957;SDS011;979;51.076;13.748;2024-01-16T09:33:17;17.77;;;17.37;;
1957;SDS011;979;51.076;13.748;2024-01-16T09:35:46;22.40;;;20.50;;
1957;SDS011;979;51.076;13.748;2024-01-16T09:38:14;16.90;;;16.50;;
1957;SDS011;979;51.076;13.748;2024-01-16T09:40:48;18.20;;;17.70;;
1957;SDS011;979;51.076;13.748;2024-01-16T09:43:20;17.67;;;17.27;;
1957;SDS011;979;51.076;13.748;2024-01-16T09:45:50;17.20;;;16.80;;
1957;SDS011;979;51.076;13.748;2024-01-16T09:48:28;17.50;;;17.10;;
1957;SDS011;979;51.076;13.748;2024-01-16T09:51:06;17.47;;;17.07;;
1957;SDS011;979;51.076;13.748;2024-01-16T09:53:39;17.47;;;16.77;;
1957;SDS011;979;51.076;13.748;2024-01-16T09:56:09;15.20;;;14.90;;
1957;SDS011;979;51.076;13.748;2024-01-16T09:58:45;20.97;;;19.43;;
1957;SDS011;979;51.076;13.748;2024-01-16T10:01:19;16.37;;;15.97;;
1957;SDS011;979;51.076;13.748;2024-01-16T10:03:49;15.10;;;14.80;;
1957;SDS011;979;51.076;13.748;2024-01-16T10:06:19;14.70;;;14.40;;
1957;SDS011;979;51.076;13.748;2024-01-16T10:08:53;15.50;;;15.10;;
1957;SDS011;979;51.076;13.748;2024-01-16T10:11:21;15.40;;;15.00;;
1957;SDS011;979;51.076;13.748;2024-01-16T10:13:51;15.70;;;15.30;;
1957;SDS011;979;51.076;13.748;2024-01-16T10:16:20;14.90;;;14.60;;
1957;SDS011;979;51.076;13.748;2024-01-16T10:18:52;14.90;;;14.53;;
1957;SDS011;979;51.076;13.748;2024-01-16T10:21:32;15.30;;;15.00;;
1957;SDS011;979;51.076;13.748;2024-01-16T10:24:03;15.80;;;15.40;;
1957;SDS011;979;51.076;13.748;2024-01-16T10:26:39;16.33;;;15.83;;
1957;SDS011;979;51.076;13.748;2024-01-16T10:29:09;14.80;;;14.50;;
1957;SDS011;979;51.076;13.748;2024-01-16T10:31:37;14.80;;;14.50;;
1957;SDS011;979;51.076;13.748;2024-01-16T10:34:18;15.80;;;15.30;;
1957;SDS011;979;51.076;13.748;2024-01-16T10:36:58;15.70;;;15.20;;
1957;SDS011;979;51.076;13.748;2024-01-16T10:39:27;15.23;;;14.83;;
1957;SDS011;979;51.076;13.748;2024-01-16T10:42:09;15.30;;;14.90;;
1957;SDS011;979;51.076;13.748;2024-01-16T10:44:43;15.03;;;14.53;;
1957;SDS011;979;51.076;13.748;2024-01-16T10:47:23;14.13;;;13.83;;
1957;SDS011;979;51.076;13.748;2024-01-16T10:49:53;14.70;;;14.40;;
1957;SDS011;979;51.076;13.748;2024-01-16T10:52:22;15.70;;;15.10;;
1957;SDS011;979;51.076;13.748;2024-01-16T10:54:56;14.60;;;14.30;;
1957;SDS011;979;51.076;13.748;2024-01-16T10:57:31;14.50;;;14.20;;
1957;SDS011;979;51.076;13.748;2024-01-16T11:00:06;14.80;;;14.50;;
1957;SDS011;979;51.076;13.748;2024-01-16T11:02:38;14.30;;;14.00;;
1957;SDS011;979;51.076;13.748;2024-01-16T11:05:12;15.20;;;14.80;;
1957;SDS011;979;51.076;13.748;2024-01-16T11:07:46;14.67;;;14.37;;
1957;SDS011;979;51.076;13.748;2024-01-16T11:10:15;15.10;;;14.80;;
1957;SDS011;979;51.076;13.748;2024-01-16T11:12:45;15.17;;;14.77;;
1957;SDS011;979;51.076;13.748;2024-01-16T11:15:18;14.50;;;14.20;;
1957;SDS011;979;51.076;13.748;2024-01-16T11:17:47;17.20;;;16.70;;
1957;SDS011;979;51.076;13.748;2024-01-16T11:20:17;14.50;;;14.20;;
1957;SDS011;979;51.076;13.748;2024-01-16T11:23:07;14.00;;;13.70;;
1957;SDS011;979;51.076;13.748;2024-01-16T11:25:36;14.60;;;14.30;;
1957;SDS011;979;51.076;13.748;2024-01-16T11:28:08;15.30;;;15.00;;
1957;SDS011;979;51.076;13.748;2024-01-16T11:30:42;15.80;;;15.40;;
1957;SDS011;979;51.076;13.748;2024-01-16T11:39:17;15.50;;;15.10;;
1957;SDS011;979;51.076;13.748;2024-01-16T11:41:50;14.93;;;14.63;;
1957;SDS011;979;51.076;13.748;2024-01-16T11:47:17;14.80;;;14.50;;
1957;SDS011;979;51.076;13.748;2024-01-16T11:49:47;14.60;;;14.30;;
1957;SDS011;979;51.076;13.748;2024-01-16T11:52:38;15.30;;;15.00;;
1957;SDS011;979;51.076;13.748;2024-01-16T11:55:25;15.53;;;15.13;;
1957;SDS011;979;51.076;13.748;2024-01-16T12:01:01;15.10;;;14.80;;
1957;SDS011;979;51.076;13.748;2024-01-16T12:03:32;14.60;;;14.30;;
1957;SDS011;979;51.076;13.748;2024-01-16T12:06:03;14.43;;;14.13;;
1957;SDS011;979;51.076;13.748;2024-01-16T12:08:38;14.67;;;14.37;;
1957;SDS011;979;51.076;13.748;2024-01-16T12:11:10;14.57;;;14.20;;
1957;SDS011;979;51.076;13.748;2024-01-16T12:14:02;15.10;;;14.80;;
1957;SDS011;979;51.076;13.748;2024-01-16T12:16:31;14.57;;;14.10;;
1957;SDS011;979;51.076;13.748;2024-01-16T12:19:10;14.90;;;14.23;;
1957;SDS011;979;51.076;13.748;2024-01-16T12:21:45;14.40;;;14.10;;
1957;SDS011;979;51.076;13.748;2024-01-16T12:24:20;13.80;;;13.50;;
1957;SDS011;979;51.076;13.748;2024-01-16T12:26:58;14.20;;;13.90;;
1957;SDS011;979;51.076;13.748;2024-01-16T12:29:30;14.00;;;13.70;;
1957;SDS011;979;51.076;13.748;2024-01-16T12:32:05;14.00;;;13.70;;
1957;SDS011;979;51.076;13.748;2024-01-16T12:34:47;14.57;;;14.27;;
1957;SDS011;979;51.076;13.748;2024-01-16T12:37:23;14.43;;;14.10;;
1957;SDS011;979;51.076;13.748;2024-01-16T12:40:05;13.80;;;13.50;;
1957;SDS011;979;51.076;13.748;2024-01-16T12:42:38;13.77;;;13.47;;
1957;SDS011;979;51.076;13.748;2024-01-16T12:45:12;13.80;;;13.50;;
1957;SDS011;979;51.076;13.748;2024-01-16T12:47:49;13.60;;;13.30;;
1957;SDS011;979;51.076;13.748;2024-01-16T12:50:22;13.90;;;13.60;;
1957;SDS011;979;51.076;13.748;2024-01-16T12:53:00;13.73;;;13.43;;
1957;SDS011;979;51.076;13.748;2024-01-16T12:55:35;14.13;;;13.83;;
1957;SDS011;979;51.076;13.748;2024-01-16T12:58:14;15.60;;;15.20;;
1957;SDS011;979;51.076;13.748;2024-01-16T13:00:46;13.17;;;12.87;;
1957;SDS011;979;51.076;13.748;2024-01-16T13:03:15;13.50;;;13.20;;
1957;SDS011;979;51.076;13.748;2024-01-16T13:05:46;13.17;;;12.90;;
1957;SDS011;979;51.076;13.748;2024-01-16T13:08:23;12.90;;;12.60;;
1957;SDS011;979;51.076;13.748;2024-01-16T13:11:02;12.40;;;12.20;;
1957;SDS011;979;51.076;13.748;2024-01-16T13:13:33;13.40;;;13.10;;
1957;SDS011;979;51.076;13.748;2024-01-16T13:16:02;13.43;;;13.13;;
1957;SDS011;979;51.076;13.748;2024-01-16T13:18:32;13.50;;;13.20;;
1957;SDS011;979;51.076;13.748;2024-01-16T13:21:04;14.10;;;13.80;;
1957;SDS011;979;51.076;13.748;2024-01-16T13:23:32;13.50;;;13.20;;
1957;SDS011;979;51.076;13.748;2024-01-16T13:26:01;13.60;;;13.30;;
1957;SDS011;979;51.076;13.748;2024-01-16T13:28:31;16.43;;;15.67;;
1957;SDS011;979;51.076;13.748;2024-01-16T13:30:59;13.90;;;13.60;;
1957;SDS011;979;51.076;13.748;2024-01-16T13:33:28;14.00;;;13.70;;
1957;SDS011;979;51.076;13.748;2024-01-16T13:35:59;14.57;;;14.27;;
1957;SDS011;979;51.076;13.748;2024-01-16T13:38:29;13.93;;;13.50;;
1957;SDS011;979;51.076;13.748;2024-01-16T13:41:06;13.93;;;13.63;;
1957;SDS011;979;51.076;13.748;2024-01-16T13:43:37;13.57;;;13.27;;
1957;SDS011;979;51.076;13.748;2024-01-16T13:46:09;13.30;;;13.00;;
1957;SDS011;979;51.076;13.748;2024-01-16T13:49:12;13.40;;;13.10;;
1957;SDS011;979;51.076;13.748;2024-01-16T13:51:43;13.50;;;13.20;;
1957;SDS011;979;51.076;13.748;2024-01-16T13:54:18;12.07;;;11.87;;
1957;SDS011;979;51.076;13.748;2024-01-16T13:56:46;13.00;;;12.70;;
1957;SDS011;979;51.076;13.748;2024-01-16T13:59:32;12.00;;;11.80;;
1957;SDS011;979;51.076;13.748;2024-01-16T14:02:03;13.50;;;13.20;;
1957;SDS011;979;51.076;13.748;2024-01-16T14:04:36;13.20;;;12.90;;
1957;SDS011;979;51.076;13.748;2024-01-16T14:07:10;14.00;;;13.70;;
1957;SDS011;979;51.076;13.748;2024-01-16T14:09:44;13.27;;;12.77;;
1957;SDS011;979;51.076;13.748;2024-01-16T14:12:13;13.87;;;13.57;;
1957;SDS011;979;51.076;13.748;2024-01-16T14:14:49;13.50;;;13.20;;
1957;SDS011;979;51.076;13.748;2024-01-16T14:17:20;13.70;;;13.40;;
1957;SDS011;979;51.076;13.748;2024-01-16T14:19:57;16.10;;;13.50;;
1957;SDS011;979;51.076;13.748;2024-01-16T14:22:39;13.37;;;13.07;;
1957;SDS011;979;51.076;13.748;2024-01-16T14:29:07;13.27;;;12.97;;
1957;SDS011;979;51.076;13.748;2024-01-16T14:31:44;13.60;;;13.30;;
1957;SDS011;979;51.076;13.748;2024-01-16T14:34:18;13.00;;;12.70;;
1957;SDS011;979;51.076;13.748;2024-01-16T14:36:58;13.00;;;12.70;;
1957;SDS011;979;51.076;13.748;2024-01-16T14:58:17;23.80;;;22.97;;
1957;SDS011;979;51.076;13.748;2024-01-16T15:00:53;14.93;;;14.53;;
1957;SDS011;979;51.076;13.748;2024-01-16T17:15:41;15.50;;;15.00;;
1957;SDS011;979;51.076;13.748;2024-01-16T17:18:20;17.53;;;16.97;;
1957;SDS011;979;51.076;13.748;2024-01-16T17:21:19;18.60;;;17.90;;
1957;SDS011;979;51.076;13.748;2024-01-16T17:24:24;16.60;;;16.10;;
1957;SDS011;979;51.076;13.748;2024-01-16T17:27:20;16.00;;;15.30;;
1957;SDS011;979;51.076;13.748;2024-01-16T17:30:10;15.70;;;15.30;;
1957;SDS011;979;51.076;13.748;2024-01-16T17:33:11;15.30;;;14.90;;
1957;SDS011;979;51.076;13.748;2024-01-16T17:36:09;15.47;;;15.07;;
1957;SDS011;979;51.076;13.748;2024-01-16T17:38:37;15.20;;;14.80;;
1957;SDS011;979;51.076;13.748;2024-01-16T17:41:20;15.60;;;15.20;;
1957;SDS011;979;51.076;13.748;2024-01-16T17:43:58;15.13;;;14.73;;
1957;SDS011;979;51.076;13.748;2024-01-16T17:46:49;16.03;;;15.53;;
1957;SDS011;979;51.076;13.748;2024-01-16T17:53:18;16.90;;;16.40;;
1957;SDS011;979;51.076;13.748;2024-01-16T17:56:28;16.63;;;16.13;;
1957;SDS011;979;51.076;13.748;2024-01-16T18:03:13;16.30;;;15.80;;
1957;SDS011;979;51.076;13.748;2024-01-16T18:06:06;16.10;;;15.60;;
1957;SDS011;979;51.076;13.748;2024-01-16T18:08:43;15.40;;;14.90;;
1957;SDS011;979;51.076;13.748;2024-01-16T18:11:21;14.60;;;14.20;;
1957;SDS011;979;51.076;13.748;2024-01-16T18:13:54;14.77;;;14.37;;
1957;SDS011;979;51.076;13.748;2024-01-16T18:16:44;15.70;;;15.20;;
1957;SDS011;979;51.076;13.748;2024-01-16T18:19:55;15.20;;;14.70;;
1957;SDS011;979;51.076;13.748;2024-01-16T18:23:22;15.73;;;15.23;;
1957;SDS011;979;51.076;13.748;2024-01-16T18:25:58;15.70;;;15.20;;
1957;SDS011;979;51.076;13.748;2024-01-16T18:29:10;16.60;;;16.10;;
1957;SDS011;979;51.076;13.748;2024-01-16T18:31:56;15.70;;;15.20;;
1957;SDS011;979;51.076;13.748;2024-01-16T18:34:55;15.90;;;15.40;;
1957;SDS011;979;51.076;13.748;2024-01-16T18:37:27;16.40;;;15.90;;
1957;SDS011;979;51.076;13.748;2024-01-16T18:40:07;16.50;;;16.00;;
1957;SDS011;979;51.076;13.748;2024-01-16T18:42:46;16.50;;;16.00;;
1957;SDS011;979;51.076;13.748;2024-01-16T18:45:33;17.17;;;16.67;;
1957;SDS011;979;51.076;13.748;2024-01-16T18:48:09;16.40;;;15.90;;
1957;SDS011;979;51.076;13.748;2024-01-16T18:50:44;16.40;;;15.90;;
1957;SDS011;979;51.076;13.748;2024-01-16T18:53:20;16.03;;;15.53;;
1957;SDS011;979;51.076;13.748;2024-01-16T18:55:51;16.07;;;15.57;;
1957;SDS011;979;51.076;13.748;2024-01-16T18:58:19;15.90;;;15.40;;
1957;SDS011;979;51.076;13.748;2024-01-16T19:00:55;18.30;;;17.53;;
1957;SDS011;979;51.076;13.748;2024-01-16T19:03:31;16.23;;;15.73;;
1957;SDS011;979;51.076;13.748;2024-01-16T19:06:10;16.20;;;15.70;;
1957;SDS011;979;51.076;13.748;2024-01-16T19:08:40;16.50;;;16.00;;
1957;SDS011;979;51.076;13.748;2024-01-16T19:11:12;22.30;;;21.60;;
1957;SDS011;979;51.076;13.748;2024-01-16T19:13:50;22.83;;;21.73;;
1957;SDS011;979;51.076;13.748;2024-01-16T19:16:19;17.47;;;16.97;;
1957;SDS011;979;51.076;13.748;2024-01-16T19:18:59;16.70;;;16.20;;
1957;SDS011;979;51.076;13.748;2024-01-16T19:21:38;16.30;;;15.80;;
1957;SDS011;979;51.076;13.748;2024-01-16T19:24:14;16.40;;;15.90;;
1957;SDS011;979;51.076;13.748;2024-01-16T19:26:51;16.30;;;15.80;;
1957;SDS011;979;51.076;13.748;2024-01-16T19:29:22;16.70;;;16.20;;
1957;SDS011;979;51.076;13.748;2024-01-16T19:31:53;16.50;;;16.00;;
1957;SDS011;979;51.076;13.748;2024-01-16T19:34:37;16.20;;;15.70;;
1957;SDS011;979;51.076;13.748;2024-01-16T19:37:19;17.40;;;16.90;;
1957;SDS011;979;51.076;13.748;2024-01-16T19:39:52;25.03;;;18.73;;
1957;SDS011;979;51.076;13.748;2024-01-16T19:42:23;15.27;;;14.80;;
1957;SDS011;979;51.076;13.748;2024-01-16T19:45:21;16.47;;;15.87;;
1957;SDS011;979;51.076;13.748;2024-01-16T19:48:02;16.23;;;15.73;;
1957;SDS011;979;51.076;13.748;2024-01-16T19:50:38;16.50;;;16.00;;
1957;SDS011;979;51.076;13.748;2024-01-16T19:53:08;17.20;;;16.50;;
1957;SDS011;979;51.076;13.748;2024-01-16T19:55:45;15.33;;;14.93;;
1957;SDS011;979;51.076;13.748;2024-01-16T19:58:18;14.80;;;14.40;;
1957;SDS011;979;51.076;13.748;2024-01-16T20:01:34;16.10;;;15.60;;
1957;SDS011;979;51.076;13.748;2024-01-16T20:04:05;14.43;;;14.03;;
1957;SDS011;979;51.076;13.748;2024-01-16T20:10:24;15.23;;;14.83;;
1957;SDS011;979;51.076;13.748;2024-01-16T20:12:56;14.77;;;14.37;;
1957;SDS011;979;51.076;13.748;2024-01-16T20:15:53;14.70;;;14.30;;
1957;SDS011;979;51.076;13.748;2024-01-16T20:18:22;15.83;;;15.33;;
1957;SDS011;979;51.076;13.748;2024-01-16T20:20:57;15.40;;;15.00;;
1957;SDS011;979;51.076;13.748;2024-01-16T20:23:28;15.50;;;15.00;;
1957;SDS011;979;51.076;13.748;2024-01-16T20:26:02;16.00;;;15.50;;
1957;SDS011;979;51.076;13.748;2024-01-16T20:28:34;15.40;;;15.00;;
1957;SDS011;979;51.076;13.748;2024-01-16T20:31:36;16.00;;;15.50;;
1957;SDS011;979;51.076;13.748;2024-01-16T20:34:17;15.90;;;15.40;;
1957;SDS011;979;51.076;13.748;2024-01-16T20:36:54;16.20;;;15.70;;
1957;SDS011;979;51.076;13.748;2024-01-16T20:39:32;16.50;;;16.00;;
1957;SDS011;979;51.076;13.748;2024-01-16T20:42:09;14.03;;;13.73;;
1957;SDS011;979;51.076;13.748;2024-01-16T20:44:38;14.40;;;14.00;;